sensor_id;sensor_type;location;lat;lon;timestamp;temperature;humidity
29007;DHT22;16104;48.642;9.008;2023-01-25T00:00:17;4.90;73.20
29007;DHT22;16104;48.642;9.008;2023-01-25T00:05:13;4.90;73.20
29007;DHT22;16104;48.642;9.008;2023-01-25T00:10:09;4.90;73.20
29007;DHT22;16104;48.642;9.008;2023-01-25T00:15:05;4.90;73.20
29007;DHT22;16104;48.642;9.008;2023-01-25T00:20:01;4.90;73.20
29007;DHT22;16104;48.642;9.008;2023-01-25T00:24:57;4.90;73.30
29007;DHT22;16104;48.642;9.008;2023-01-25T00:29:52;4.90;73.20
29007;DHT22;16104;48.642;9.008;2023-01-25T00:34:49;4.90;73.30
29007;DHT22;16104;48.642;9.008;2023-01-25T00:39:46;4.90;73.40
29007;DHT22;16104;48.642;9.008;2023-01-25T00:44:41;4.90;73.30
29007;DHT22;16104;48.642;9.008;2023-01-25T00:49:38;4.90;73.20
29007;DHT22;16104;48.642;9.008;2023-01-25T00:54:34;4.90;73.30
29007;DHT22;16104;48.642;9.008;2023-01-25T00:59:30;4.90;73.30
29007;DHT22;16104;48.642;9.008;2023-01-25T02:02:54;5.00;73.20
29007;DHT22;16104;48.642;9.008;2023-01-25T02:07:51;5.00;73.20
29007;DHT22;16104;48.642;9.008;2023-01-25T02:12:51;5.00;73.20
29007;DHT22;16104;48.642;9.008;2023-01-25T03:03:36;4.90;73.10
29007;DHT22;16104;48.642;9.008;2023-01-25T03:08:33;5.00;73.20
29007;DHT22;16104;48.642;9.008;2023-01-25T04:04:18;4.90;73.30
29007;DHT22;16104;48.642;9.008;2023-01-25T04:09:13;4.90;73.50
29007;DHT22;16104;48.642;9.008;2023-01-25T04:19:05;4.90;73.50
29007;DHT22;16104;48.642;9.008;2023-01-25T04:24:01;4.90;73.30
29007;DHT22;16104;48.642;9.008;2023-01-25T04:28:56;4.90;73.30
29007;DHT22;16104;48.642;9.008;2023-01-25T04:33:52;4.90;73.20
29007;DHT22;16104;48.642;9.008;2023-01-25T04:38:47;4.90;73.30
29007;DHT22;16104;48.642;9.008;2023-01-25T04:43:43;4.90;73.20
29007;DHT22;16104;48.642;9.008;2023-01-25T04:48:38;5.00;73.30
29007;DHT22;16104;48.642;9.008;2023-01-25T04:53:34;4.90;73.10
29007;DHT22;16104;48.642;9.008;2023-01-25T04:58:29;5.00;73.20
29007;DHT22;16104;48.642;9.008;2023-01-25T05:03:25;5.00;73.20
29007;DHT22;16104;48.642;9.008;2023-01-25T05:08:20;5.00;74.00
29007;DHT22;16104;48.642;9.008;2023-01-25T05:13:16;4.90;73.00
29007;DHT22;16104;48.642;9.008;2023-01-25T05:18:11;5.00;73.10
29007;DHT22;16104;48.642;9.008;2023-01-25T05:23:07;5.00;73.10
29007;DHT22;16104;48.642;9.008;2023-01-25T05:28:06;5.00;73.00
29007;DHT22;16104;48.642;9.008;2023-01-25T05:33:02;5.00;73.00
29007;DHT22;16104;48.642;9.008;2023-01-25T05:37:58;5.00;72.90
29007;DHT22;16104;48.642;9.008;2023-01-25T05:42:57;5.00;72.80
29007;DHT22;16104;48.642;9.008;2023-01-25T05:47:55;5.00;72.80
29007;DHT22;16104;48.642;9.008;2023-01-25T05:52:51;5.00;72.70
29007;DHT22;16104;48.642;9.008;2023-01-25T05:57:47;4.90;72.50
29007;DHT22;16104;48.642;9.008;2023-01-25T06:02:42;4.90;72.40
29007;DHT22;16104;48.642;9.008;2023-01-25T06:07:37;5.00;72.50
29007;DHT22;16104;48.642;9.008;2023-01-25T06:12:33;5.00;73.40
29007;DHT22;16104;48.642;9.008;2023-01-25T06:17:29;5.00;72.50
29007;DHT22;16104;48.642;9.008;2023-01-25T06:22:24;5.00;72.50
29007;DHT22;16104;48.642;9.008;2023-01-25T06:27:20;5.00;72.40
29007;DHT22;16104;48.642;9.008;2023-01-25T06:32:15;5.00;72.30
29007;DHT22;16104;48.642;9.008;2023-01-25T06:37:11;5.00;72.30
29007;DHT22;16104;48.642;9.008;2023-01-25T06:42:06;5.00;73.00
29007;DHT22;16104;48.642;9.008;2023-01-25T06:47:02;5.00;72.00
29007;DHT22;16104;48.642;9.008;2023-01-25T06:51:57;5.00;72.00
29007;DHT22;16104;48.642;9.008;2023-01-25T06:56:55;5.00;71.80
29007;DHT22;16104;48.642;9.008;2023-01-25T07:01:50;5.00;71.80
29007;DHT22;16104;48.642;9.008;2023-01-25T07:06:46;5.00;71.80
29007;DHT22;16104;48.642;9.008;2023-01-25T07:11:41;5.00;71.80
29007;DHT22;16104;48.642;9.008;2023-01-25T07:16:37;5.00;71.70
29007;DHT22;16104;48.642;9.008;2023-01-25T07:21:32;4.90;71.70
29007;DHT22;16104;48.642;9.008;2023-01-25T07:26:28;5.00;71.80
29007;DHT22;16104;48.642;9.008;2023-01-25T07:31:24;5.00;71.80
29007;DHT22;16104;48.642;9.008;2023-01-25T07:36:20;5.00;71.80
29007;DHT22;16104;48.642;9.008;2023-01-25T07:41:16;5.00;71.60
29007;DHT22;16104;48.642;9.008;2023-01-25T07:46:12;5.00;71.60
29007;DHT22;16104;48.642;9.008;2023-01-25T07:51:09;5.00;71.50
29007;DHT22;16104;48.642;9.008;2023-01-25T07:56:17;5.00;71.30
29007;DHT22;16104;48.642;9.008;2023-01-25T08:01:18;5.00;71.30
29007;DHT22;16104;48.642;9.008;2023-01-25T08:06:13;5.00;71.30
29007;DHT22;16104;48.642;9.008;2023-01-25T08:11:18;5.00;71.60
29007;DHT22;16104;48.642;9.008;2023-01-25T08:16:19;5.00;71.50
29007;DHT22;16104;48.642;9.008;2023-01-25T08:21:15;5.00;71.20
29007;DHT22;16104;48.642;9.008;2023-01-25T08:26:12;5.00;71.00
29007;DHT22;16104;48.642;9.008;2023-01-25T08:31:17;5.00;71.00
29007;DHT22;16104;48.642;9.008;2023-01-25T08:36:16;5.00;71.10
29007;DHT22;16104;48.642;9.008;2023-01-25T08:41:16;5.00;71.10
29007;DHT22;16104;48.642;9.008;2023-01-25T08:46:14;5.00;71.10
29007;DHT22;16104;48.642;9.008;2023-01-25T08:51:18;5.00;71.00
29007;DHT22;16104;48.642;9.008;2023-01-25T08:56:15;5.00;70.70
29007;DHT22;16104;48.642;9.008;2023-01-25T09:01:12;5.00;70.70
29007;DHT22;16104;48.642;9.008;2023-01-25T09:06:09;5.00;70.60
29007;DHT22;16104;48.642;9.008;2023-01-25T09:11:10;5.00;70.60
29007;DHT22;16104;48.642;9.008;2023-01-25T09:16:08;4.90;70.30
29007;DHT22;16104;48.642;9.008;2023-01-25T09:21:08;5.00;70.50
29007;DHT22;16104;48.642;9.008;2023-01-25T09:26:04;4.90;70.50
29007;DHT22;16104;48.642;9.008;2023-01-25T09:31:05;4.90;70.60
29007;DHT22;16104;48.642;9.008;2023-01-25T09:36:01;4.90;70.60
29007;DHT22;16104;48.642;9.008;2023-01-25T09:41:28;4.90;70.60
29007;DHT22;16104;48.642;9.008;2023-01-25T09:46:40;4.90;70.70
29007;DHT22;16104;48.642;9.008;2023-01-25T09:56:49;4.90;70.70
29007;DHT22;16104;48.642;9.008;2023-01-25T10:02:02;4.90;70.90
29007;DHT22;16104;48.642;9.008;2023-01-25T10:17:37;5.00;71.00
29007;DHT22;16104;48.642;9.008;2023-01-25T10:22:50;4.90;70.90
29007;DHT22;16104;48.642;9.008;2023-01-25T10:32:47;5.00;71.00
29007;DHT22;16104;48.642;9.008;2023-01-25T10:37:45;5.00;70.90
29007;DHT22;16104;48.642;9.008;2023-01-25T10:42:54;5.00;71.00
29007;DHT22;16104;48.642;9.008;2023-01-25T10:48:10;5.10;71.00
29007;DHT22;16104;48.642;9.008;2023-01-25T10:58:40;5.10;71.00
29007;DHT22;16104;48.642;9.008;2023-01-25T11:03:39;5.10;70.90
29007;DHT22;16104;48.642;9.008;2023-01-25T11:08:39;5.20;71.00
29007;DHT22;16104;48.642;9.008;2023-01-25T11:13:39;5.10;70.80
29007;DHT22;16104;48.642;9.008;2023-01-25T11:18:35;5.20;70.90
29007;DHT22;16104;48.642;9.008;2023-01-25T11:23:31;5.20;70.80
29007;DHT22;16104;48.642;9.008;2023-01-25T11:28:28;5.20;70.60
29007;DHT22;16104;48.642;9.008;2023-01-25T11:33:25;5.20;70.60
29007;DHT22;16104;48.642;9.008;2023-01-25T11:38:22;5.20;70.60
29007;DHT22;16104;48.642;9.008;2023-01-25T11:44:23;5.20;70.60
29007;DHT22;16104;48.642;9.008;2023-01-25T11:49:25;5.20;70.50
29007;DHT22;16104;48.642;9.008;2023-01-25T11:54:27;5.20;70.20
29007;DHT22;16104;48.642;9.008;2023-01-25T11:59:50;5.20;70.20
29007;DHT22;16104;48.642;9.008;2023-01-25T12:05:31;5.20;70.10
29007;DHT22;16104;48.642;9.008;2023-01-25T12:10:57;5.10;70.10
29007;DHT22;16104;48.642;9.008;2023-01-25T12:26:15;5.10;70.30
29007;DHT22;16104;48.642;9.008;2023-01-25T12:31:18;5.00;70.30
29007;DHT22;16104;48.642;9.008;2023-01-25T12:36:22;5.10;70.40
29007;DHT22;16104;48.642;9.008;2023-01-25T12:46:29;5.10;70.40
29007;DHT22;16104;48.642;9.008;2023-01-25T12:51:33;5.10;70.60
29007;DHT22;16104;48.642;9.008;2023-01-25T12:56:45;5.10;70.30
29007;DHT22;16104;48.642;9.008;2023-01-25T13:01:57;5.10;70.30
29007;DHT22;16104;48.642;9.008;2023-01-25T13:07:00;5.10;70.30
29007;DHT22;16104;48.642;9.008;2023-01-25T13:11:58;5.10;70.20
29007;DHT22;16104;48.642;9.008;2023-01-25T13:22:07;5.10;70.40
29007;DHT22;16104;48.642;9.008;2023-01-25T13:27:09;5.10;70.40
29007;DHT22;16104;48.642;9.008;2023-01-25T13:37:30;5.10;70.30
29007;DHT22;16104;48.642;9.008;2023-01-25T13:42:28;5.10;70.20
29007;DHT22;16104;48.642;9.008;2023-01-25T13:47:35;5.10;70.30
29007;DHT22;16104;48.642;9.008;2023-01-25T13:52:32;5.10;70.40
29007;DHT22;16104;48.642;9.008;2023-01-25T13:57:31;5.10;70.30
29007;DHT22;16104;48.642;9.008;2023-01-25T14:02:27;5.10;70.50
29007;DHT22;16104;48.642;9.008;2023-01-25T14:07:29;5.10;70.40
29007;DHT22;16104;48.642;9.008;2023-01-25T14:12:41;5.20;70.30
29007;DHT22;16104;48.642;9.008;2023-01-25T14:17:37;5.10;70.10
29007;DHT22;16104;48.642;9.008;2023-01-25T14:22:32;5.20;70.30
29007;DHT22;16104;48.642;9.008;2023-01-25T14:27:30;5.10;70.10
29007;DHT22;16104;48.642;9.008;2023-01-25T14:32:26;5.10;69.90
29007;DHT22;16104;48.642;9.008;2023-01-25T14:37:22;5.10;69.80
29007;DHT22;16104;48.642;9.008;2023-01-25T14:42:18;5.00;70.00
29007;DHT22;16104;48.642;9.008;2023-01-25T14:52:25;5.00;69.90
29007;DHT22;16104;48.642;9.008;2023-01-25T14:57:36;5.00;69.90
29007;DHT22;16104;48.642;9.008;2023-01-25T15:02:54;5.00;70.10
29007;DHT22;16104;48.642;9.008;2023-01-25T15:07:56;5.00;70.40
29007;DHT22;16104;48.642;9.008;2023-01-25T15:13:23;4.90;70.50
29007;DHT22;16104;48.642;9.008;2023-01-25T15:18:48;5.00;70.60
29007;DHT22;16104;48.642;9.008;2023-01-25T15:23:46;4.90;70.40
29007;DHT22;16104;48.642;9.008;2023-01-25T15:28:42;5.00;70.30
29007;DHT22;16104;48.642;9.008;2023-01-25T15:33:38;5.00;70.30
29007;DHT22;16104;48.642;9.008;2023-01-25T15:38:33;5.00;70.30
29007;DHT22;16104;48.642;9.008;2023-01-25T15:43:29;4.90;70.20
29007;DHT22;16104;48.642;9.008;2023-01-25T15:48:37;4.90;70.20
29007;DHT22;16104;48.642;9.008;2023-01-25T15:53:34;4.90;70.30
29007;DHT22;16104;48.642;9.008;2023-01-25T15:58:33;4.90;70.50
29007;DHT22;16104;48.642;9.008;2023-01-25T16:03:30;4.90;70.60
29007;DHT22;16104;48.642;9.008;2023-01-25T16:08:27;4.80;70.60
29007;DHT22;16104;48.642;9.008;2023-01-25T16:13:22;4.90;70.70
29007;DHT22;16104;48.642;9.008;2023-01-25T16:18:19;4.80;70.50
29007;DHT22;16104;48.642;9.008;2023-01-25T16:23:14;4.80;70.40
29007;DHT22;16104;48.642;9.008;2023-01-25T16:28:14;4.80;70.50
29007;DHT22;16104;48.642;9.008;2023-01-25T16:33:10;4.80;70.60
29007;DHT22;16104;48.642;9.008;2023-01-25T16:38:05;4.80;70.60
29007;DHT22;16104;48.642;9.008;2023-01-25T16:43:01;4.70;70.50
29007;DHT22;16104;48.642;9.008;2023-01-25T16:47:57;4.70;70.50
29007;DHT22;16104;48.642;9.008;2023-01-25T16:52:53;4.70;70.40
29007;DHT22;16104;48.642;9.008;2023-01-25T16:57:50;4.70;70.40
29007;DHT22;16104;48.642;9.008;2023-01-25T17:02:45;4.70;70.40
29007;DHT22;16104;48.642;9.008;2023-01-25T17:07:41;4.60;70.40
29007;DHT22;16104;48.642;9.008;2023-01-25T17:12:36;4.60;70.50
29007;DHT22;16104;48.642;9.008;2023-01-25T17:17:32;4.60;70.50
29007;DHT22;16104;48.642;9.008;2023-01-25T17:22:28;4.60;70.60
29007;DHT22;16104;48.642;9.008;2023-01-25T17:27:28;4.60;70.80
29007;DHT22;16104;48.642;9.008;2023-01-25T17:32:23;4.50;70.80
29007;DHT22;16104;48.642;9.008;2023-01-25T17:37:19;4.60;70.90
29007;DHT22;16104;48.642;9.008;2023-01-25T17:42:14;4.50;70.80
29007;DHT22;16104;48.642;9.008;2023-01-25T17:47:10;4.50;70.90
29007;DHT22;16104;48.642;9.008;2023-01-25T17:52:05;4.50;71.10
29007;DHT22;16104;48.642;9.008;2023-01-25T17:57:01;4.60;71.20
29007;DHT22;16104;48.642;9.008;2023-01-25T18:01:56;4.50;70.90
29007;DHT22;16104;48.642;9.008;2023-01-25T18:06:52;4.50;70.70
29007;DHT22;16104;48.642;9.008;2023-01-25T18:11:47;4.60;70.70
29007;DHT22;16104;48.642;9.008;2023-01-25T18:16:43;4.60;70.70
29007;DHT22;16104;48.642;9.008;2023-01-25T18:21:39;4.50;70.60
29007;DHT22;16104;48.642;9.008;2023-01-25T18:26:36;4.50;70.70
29007;DHT22;16104;48.642;9.008;2023-01-25T18:31:31;4.50;70.70
29007;DHT22;16104;48.642;9.008;2023-01-25T18:36:27;4.50;70.70
29007;DHT22;16104;48.642;9.008;2023-01-25T18:41:22;4.50;70.70
29007;DHT22;16104;48.642;9.008;2023-01-25T18:46:18;4.50;70.70
29007;DHT22;16104;48.642;9.008;2023-01-25T18:51:15;4.50;70.40
29007;DHT22;16104;48.642;9.008;2023-01-25T18:56:19;4.50;70.50
29007;DHT22;16104;48.642;9.008;2023-01-25T19:01:17;4.50;70.60
29007;DHT22;16104;48.642;9.008;2023-01-25T19:06:13;4.50;70.70
29007;DHT22;16104;48.642;9.008;2023-01-25T19:11:11;4.50;70.70
29007;DHT22;16104;48.642;9.008;2023-01-25T19:16:14;4.50;70.70
29007;DHT22;16104;48.642;9.008;2023-01-25T19:21:10;4.50;70.70
29007;DHT22;16104;48.642;9.008;2023-01-25T19:26:07;4.50;70.70
29007;DHT22;16104;48.642;9.008;2023-01-25T19:31:07;4.50;70.70
29007;DHT22;16104;48.642;9.008;2023-01-25T19:36:04;4.50;70.50
29007;DHT22;16104;48.642;9.008;2023-01-25T19:41:09;4.50;70.40
29007;DHT22;16104;48.642;9.008;2023-01-25T19:46:14;4.50;70.60
29007;DHT22;16104;48.642;9.008;2023-01-25T19:56:14;4.40;70.60
29007;DHT22;16104;48.642;9.008;2023-01-25T20:01:15;4.40;70.60
29007;DHT22;16104;48.642;9.008;2023-01-25T20:06:12;4.40;70.70
29007;DHT22;16104;48.642;9.008;2023-01-25T20:11:13;4.40;70.70
29007;DHT22;16104;48.642;9.008;2023-01-25T20:16:11;4.40;70.70
29007;DHT22;16104;48.642;9.008;2023-01-25T20:21:10;4.40;70.60
29007;DHT22;16104;48.642;9.008;2023-01-25T20:26:07;4.40;70.80
29007;DHT22;16104;48.642;9.008;2023-01-25T20:31:03;4.40;70.80
29007;DHT22;16104;48.642;9.008;2023-01-25T20:36:04;4.40;70.80
29007;DHT22;16104;48.642;9.008;2023-01-25T20:41:05;4.40;70.90
29007;DHT22;16104;48.642;9.008;2023-01-25T20:46:01;4.40;70.80
29007;DHT22;16104;48.642;9.008;2023-01-25T20:51:01;4.40;70.80
29007;DHT22;16104;48.642;9.008;2023-01-25T20:55:57;4.40;70.80
29007;DHT22;16104;48.642;9.008;2023-01-25T21:00:54;4.40;70.80
29007;DHT22;16104;48.642;9.008;2023-01-25T21:05:54;4.30;70.80
29007;DHT22;16104;48.642;9.008;2023-01-25T21:10:51;4.30;70.60
29007;DHT22;16104;48.642;9.008;2023-01-25T21:15:57;4.30;70.70
29007;DHT22;16104;48.642;9.008;2023-01-25T21:20:59;4.30;70.60
29007;DHT22;16104;48.642;9.008;2023-01-25T21:25:54;4.20;70.60
29007;DHT22;16104;48.642;9.008;2023-01-25T21:30:50;4.20;70.60
29007;DHT22;16104;48.642;9.008;2023-01-25T21:35:46;4.10;70.80
29007;DHT22;16104;48.642;9.008;2023-01-25T21:40:41;4.10;70.80
29007;DHT22;16104;48.642;9.008;2023-01-25T21:45:38;4.10;70.90
29007;DHT22;16104;48.642;9.008;2023-01-25T21:50:51;4.10;71.00
29007;DHT22;16104;48.642;9.008;2023-01-25T21:56:06;4.10;71.30
29007;DHT22;16104;48.642;9.008;2023-01-25T22:01:01;4.10;71.40
29007;DHT22;16104;48.642;9.008;2023-01-25T22:05:58;4.10;71.40
29007;DHT22;16104;48.642;9.008;2023-01-25T22:11:00;4.20;71.40
29007;DHT22;16104;48.642;9.008;2023-01-25T22:16:00;4.20;71.20
29007;DHT22;16104;48.642;9.008;2023-01-25T22:20:57;4.20;71.20
29007;DHT22;16104;48.642;9.008;2023-01-25T22:26:07;4.20;71.00
29007;DHT22;16104;48.642;9.008;2023-01-25T22:31:03;4.20;71.10
29007;DHT22;16104;48.642;9.008;2023-01-25T22:35:59;4.10;71.00
29007;DHT22;16104;48.642;9.008;2023-01-25T22:40:54;4.20;71.10
29007;DHT22;16104;48.642;9.008;2023-01-25T22:45:53;4.10;71.00
29007;DHT22;16104;48.642;9.008;2023-01-25T22:50:48;4.10;71.10
29007;DHT22;16104;48.642;9.008;2023-01-25T22:55:44;4.10;71.10
29007;DHT22;16104;48.642;9.008;2023-01-25T23:00:39;4.10;71.10
29007;DHT22;16104;48.642;9.008;2023-01-25T23:05:35;4.00;71.20
29007;DHT22;16104;48.642;9.008;2023-01-25T23:10:30;4.00;71.20
29007;DHT22;16104;48.642;9.008;2023-01-25T23:15:26;4.00;71.20
29007;DHT22;16104;48.642;9.008;2023-01-25T23:20:21;3.90;71.20
29007;DHT22;16104;48.642;9.008;2023-01-25T23:25:17;3.90;71.40
29007;DHT22;16104;48.642;9.008;2023-01-25T23:30:13;3.90;71.50
29007;DHT22;16104;48.642;9.008;2023-01-25T23:35:08;3.90;71.60
29007;DHT22;16104;48.642;9.008;2023-01-25T23:40:04;3.80;71.70
29007;DHT22;16104;48.642;9.008;2023-01-25T23:45:04;3.80;71.80
29007;DHT22;16104;48.642;9.008;2023-01-25T23:49:59;3.80;71.90
29007;DHT22;16104;48.642;9.008;2023-01-25T23:54:55;3.90;71.90
29007;DHT22;16104;48.642;9.008;2023-01-25T23:59:50;3.90;72.00
